Terminal Aerodrome Forecast
Issued by NWS Denver/Boulder, CO

Home | Current Version | Previous Version | Text Only | Print | Product List | Glossary On
Versions: 1 2 3 4 5 6 7 8 9 10 11 12 13 14 15 16 17 18 19 20 21 22 23 24 25 26 27 28 29 30 31 32 33 34 35 36 37 38 39 40 41 42 43
000
FTUS45 KBOU 241410 AAA
TAFDEN
TAF AMD
KDEN 241410Z 2414/2518 24005KT P6SM FEW250
     FM241800 29008KT P6SM FEW090
     FM242200 30011G18KT P6SM FEW090 SCT120
     FM250100 25010KT P6SM FEW090 SCT120
     FM250300 21011KT P6SM FEW120 SCT200
     FM251500 04010KT P6SM FEW090 BKN200=

USA.gov is the U.S. government's official web portal to all federal, state and local government web resources and services.